»·PEaware :: DAL2385 KSEA-KSFO

DAL2385 :: KSEA-KSFO

FLIGHT INFORMATION

Flight Status: Arrived
Operator:
Delta Air Lines
More flights by this operator :: More flights under this callsign
Pilot: Mike C. (16705)
Aircraft: BOEING 737-800
(B738)
More flights by this aircraft type
Origin: KSEA Seattle-Tacoma Intl
United States
Destination: KSFO San Francisco Intl
United States
More flights between these airports :: More routes between these airports
Route: +HAROB6 FEPOT RBG EBINY Q1 ETCHY MLBEC BDEGA2
File this flight plan on PilotEdge
Remarks: PBN / A1B1C1D1L1O1S1 NAV / RNVD1E2A1 DOF / 171226 REG / N838NN EET / KZOA0057 RVR / 200 PER / C
Altitude:
(Current/Filed)
370ft
Speed:
(Current/Filed)
457kts
Departed: 26-Dec-17 03:24 PM
Arrived: 26-Dec-17 04:43 PM
Distance/Time
Traveled:
590nm/1:19
Distance/Time
To Go:
Arrived

Flight Plot

Page will automatically refresh every two minutes.

Flight plan parsing failed; only flown route is shown


Map Options




Map Legend


Flown Route
Filed Route
Departure Airport
Arrival Airport
Navaid (VOR, NDB)
Fix

Horizontal Profiles

Position Reports

Time Latitude Longitude Heading Altitude Ground
Speed
26-Dec-17 14:53 47.442296 -122.304428 113 441ft 0kts
26-Dec-17 14:54 47.442296 -122.304428 113 441ft 0kts
26-Dec-17 14:55 47.442296 -122.304428 113 441ft 0kts
26-Dec-17 14:56 47.442296 -122.304428 113 441ft 0kts
26-Dec-17 14:57 47.442296 -122.304428 113 441ft 0kts
26-Dec-17 14:58 47.442296 -122.304428 113 441ft 0kts
26-Dec-17 14:59 47.442296 -122.304428 113 441ft 0kts
26-Dec-17 15:00 47.442296 -122.304428 113 441ft 0kts
26-Dec-17 15:01 47.442296 -122.304428 113 441ft 0kts
26-Dec-17 15:02 47.442296 -122.304428 113 441ft 0kts
26-Dec-17 15:03 47.442296 -122.304428 113 441ft 0kts
26-Dec-17 15:04 47.442296 -122.304428 113 441ft 0kts
26-Dec-17 15:05 47.442296 -122.304428 113 441ft 0kts
26-Dec-17 15:06 47.442296 -122.304428 113 441ft 0kts
26-Dec-17 15:07 47.442296 -122.304428 113 441ft 0kts
26-Dec-17 15:08 47.442296 -122.304428 113 441ft 0kts
26-Dec-17 15:09 47.442296 -122.304428 113 441ft 0kts
26-Dec-17 15:10 47.442296 -122.304428 113 441ft 0kts
26-Dec-17 15:11 47.442296 -122.304428 113 441ft 0kts
26-Dec-17 15:12 47.442296 -122.304428 113 441ft 0kts
26-Dec-17 15:13 47.442296 -122.304428 113 441ft 0kts
26-Dec-17 15:14 47.442296 -122.304428 113 441ft 0kts
26-Dec-17 15:15 47.442391 -122.305086 81 441ft 2kts
26-Dec-17 15:16 47.442180 -122.305667 44 441ft 0kts
26-Dec-17 15:17 47.442180 -122.305666 44 441ft 0kts
26-Dec-17 15:18 47.442204 -122.305636 39 441ft 2kts
26-Dec-17 15:19 47.445725 -122.305494 359 441ft 15kts
26-Dec-17 15:20 47.449972 -122.306292 358 441ft 16kts
26-Dec-17 15:21 47.455157 -122.306308 0 441ft 20kts
26-Dec-17 15:22 47.461054 -122.306054 1 441ft 21kts
26-Dec-17 15:23 47.463587 -122.306350 316 441ft 0kts
26-Dec-17 15:24 47.463589 -122.306354 316 441ft 0kts
26-Dec-17 15:25 47.463592 -122.306357 316 441ft 0kts
26-Dec-17 15:26 47.463594 -122.306360 316 441ft 0kts
26-Dec-17 15:27 47.463596 -122.306364 316 441ft 0kts
26-Dec-17 15:28 47.463598 -122.306366 316 441ft 0kts
26-Dec-17 15:29 47.463779 -122.306897 273 441ft 7kts
26-Dec-17 15:30 47.459039 -122.307751 180 441ft 89kts
26-Dec-17 15:31 47.414006 -122.309308 177 2935ft 172kts
26-Dec-17 15:32 47.365151 -122.309528 181 4442ft 237kts
26-Dec-17 15:33 47.313819 -122.356480 254 7426ft 248kts
26-Dec-17 15:34 47.307538 -122.483499 273 11002ft 276kts
26-Dec-17 15:35 47.310932 -122.586355 274 12472ft 331kts
26-Dec-17 15:36 47.314613 -122.726945 272 15266ft 350kts
26-Dec-17 15:37 47.289795 -122.868305 252 18039ft 367kts
26-Dec-17 15:38 47.250002 -123.009747 243 20467ft 383kts
26-Dec-17 15:39 47.170334 -123.121282 222 22620ft 408kts
26-Dec-17 15:40 47.071836 -123.208719 199 24502ft 436kts
26-Dec-17 15:41 46.947269 -123.219800 186 26216ft 455kts
26-Dec-17 15:42 46.819346 -123.220772 187 27708ft 464kts
26-Dec-17 15:43 46.694738 -123.221692 187 28961ft 471kts
26-Dec-17 15:44 46.564270 -123.222647 187 30646ft 466kts
26-Dec-17 15:45 46.436684 -123.223574 188 32096ft 463kts
26-Dec-17 15:46 46.308052 -123.224502 188 33443ft 461kts
26-Dec-17 15:47 46.179517 -123.225424 188 34653ft 461kts
26-Dec-17 15:48 46.051328 -123.226339 188 35776ft 460kts
26-Dec-17 15:49 45.923235 -123.227248 187 36785ft 461kts
26-Dec-17 15:50 45.794283 -123.228155 187 37347ft 465kts
26-Dec-17 15:51 45.665855 -123.229054 187 37355ft 459kts
26-Dec-17 15:52 45.537859 -123.229946 187 37357ft 460kts
26-Dec-17 15:53 45.410917 -123.230830 187 37356ft 460kts
26-Dec-17 15:54 45.281490 -123.231726 187 37357ft 460kts
26-Dec-17 15:55 45.153809 -123.233844 189 37358ft 457kts
26-Dec-17 15:56 45.026474 -123.241749 189 37353ft 457kts
26-Dec-17 15:57 44.899596 -123.249567 189 37350ft 457kts
26-Dec-17 15:58 44.772817 -123.257462 189 37348ft 457kts
26-Dec-17 15:59 44.645841 -123.265288 189 37351ft 455kts
26-Dec-17 16:00 44.386231 -123.281146 189 37360ft 455kts
26-Dec-17 16:01 43.881467 -123.311494 189 37341ft 453kts
26-Dec-17 16:02 43.376394 -123.340947 189 37312ft 453kts
26-Dec-17 16:03 42.868544 -123.304447 180 37289ft 463kts
26-Dec-17 16:04 42.359120 -123.239524 185 37271ft 457kts
26-Dec-17 16:05 41.862905 -123.227472 185 37310ft 456kts
26-Dec-17 16:06 41.355639 -123.209579 185 37316ft 456kts
26-Dec-17 16:07 41.174059 -123.204701 185 37301ft 456kts
26-Dec-17 16:08 41.046830 -123.201558 185 37296ft 456kts
26-Dec-17 16:09 40.919966 -123.198377 185 37302ft 457kts
26-Dec-17 16:10 40.792417 -123.195177 185 37302ft 457kts
26-Dec-17 16:11 40.665303 -123.192002 185 37302ft 457kts
26-Dec-17 16:12 40.538400 -123.188844 185 37298ft 456kts
26-Dec-17 16:13 40.411109 -123.185685 185 37285ft 456kts
26-Dec-17 16:14 40.284242 -123.182549 185 37282ft 456kts
26-Dec-17 16:15 40.157349 -123.179419 185 37281ft 456kts
26-Dec-17 16:16 40.030082 -123.176301 185 37283ft 456kts
26-Dec-17 16:17 39.903035 -123.172099 184 37280ft 458kts
26-Dec-17 16:18 39.775891 -123.166126 184 37277ft 458kts
26-Dec-17 16:19 39.648278 -123.160222 184 37274ft 458kts
26-Dec-17 16:20 39.521106 -123.154353 184 37271ft 458kts
26-Dec-17 16:21 39.393961 -123.148513 184 37270ft 457kts
26-Dec-17 16:22 39.266578 -123.142691 184 37269ft 457kts
26-Dec-17 16:23 39.139593 -123.136819 182 36844ft 457kts
26-Dec-17 16:24 39.018341 -123.077537 150 34020ft 486kts
26-Dec-17 16:25 38.904495 -122.984115 154 30960ft 490kts
26-Dec-17 16:26 38.778994 -122.929775 171 28555ft 468kts
26-Dec-17 16:27 38.653417 -122.893390 171 26289ft 455kts
26-Dec-17 16:28 38.533638 -122.858150 170 24837ft 421kts
26-Dec-17 16:29 38.421634 -122.825114 171 22814ft 408kts
26-Dec-17 16:30 38.312346 -122.793152 171 20947ft 398kts
26-Dec-17 16:31 38.205454 -122.761920 171 19112ft 388kts
26-Dec-17 16:32 38.101362 -122.731631 170 17322ft 380kts
26-Dec-17 16:33 37.999215 -122.702056 170 15558ft 371kts
26-Dec-17 16:34 37.900285 -122.668929 156 13622ft 373kts
26-Dec-17 16:35 37.819645 -122.588475 139 11888ft 366kts
26-Dec-17 16:36 37.745140 -122.509763 140 11110ft 329kts
26-Dec-17 16:37 37.681555 -122.442158 140 10984ft 282kts
26-Dec-17 16:38 37.621250 -122.378175 140 10861ft 286kts
26-Dec-17 16:39 37.550871 -122.326879 153 9070ft 291kts
26-Dec-17 16:40 37.479851 -122.282406 153 7298ft 278kts
26-Dec-17 16:41 37.434025 -122.211850 113 5646ft 260kts
26-Dec-17 16:42 37.421953 -122.132916 46 4459ft 226kts
26-Dec-17 16:43 37.475978 -122.126247 324 4018ft 214kts
26-Dec-17 16:44 37.522121 -122.169785 323 3875ft 200kts
26-Dec-17 16:45 37.556713 -122.226757 297 2317ft 212kts
26-Dec-17 16:46 37.582087 -122.287732 298 1274ft 169kts
26-Dec-17 16:47 37.600532 -122.331657 295 505ft 124kts
26-Dec-17 16:48 37.615513 -122.367053 291 21ft 74kts
26-Dec-17 16:49 37.618975 -122.376674 273 21ft 20kts
26-Dec-17 16:50 37.618791 -122.378933 239 21ft 9kts
26-Dec-17 16:51 37.615443 -122.380397 209 21ft 15kts
26-Dec-17 16:52 37.614519 -122.381878 332 21ft 1kts
26-Dec-17 16:53 37.614542 -122.381893 332 21ft 0kts
26-Dec-17 16:54 37.614542 -122.381893 332 21ft 0kts
26-Dec-17 16:55 37.614542 -122.381893 332 21ft 0kts

Navigation Log

Ident Type
Flight plan parsing failed, navigation log unavailable